ハルビン の空港の天気 - METARとTAF

ハルビン太平国際空港 ( ZYHB / HRB ) - 中国 黒竜江省ハルビン市
飛行場実況気象(Metar)
観測時間05/23 08:00 CST (05/23 00:00 UTC)
風向・風速南 6m/s
視程10km以上
天気現象
なし
気温11℃
湿度62%
気圧1001hPa
METARZYHB 230000Z 19006MPS CAVOK 11/04 Q1001 NOSIG
過去の天気等 Google飛行場航空写真 Wunderground天気予報

過去48時間のMETAR

飛行場予報(TAF)
発表時間: 5/23 03:21 CST (5/22 19:21 UTC)
予報対象時間: 23日8時 CST ~ 24日8時 CST
風向・風速西南西 5m/s 瞬間風速 11m/s
視程6,000m
全天の4割程度の雲 雲底高度 790m
TAF ZYHB 221921Z 2300/2324 25005G11MPS 6000 SCT026 TX21/2306Z TN11/2321Z